createdAt,value
2023-04-24T00:01:20.619Z,3.80
2023-04-24T00:03:50.273Z,3.90
2023-04-24T00:06:19.186Z,3.70
2023-04-24T00:08:47.335Z,3.50
2023-04-24T00:11:15.611Z,3.50
2023-04-24T00:13:43.743Z,3.70
2023-04-24T00:16:11.929Z,3.80
2023-04-24T00:18:40.100Z,3.60
2023-04-24T00:21:09.730Z,3.60
2023-04-24T00:23:38.174Z,3.60
2023-04-24T00:26:06.385Z,3.50
2023-04-24T00:28:34.568Z,3.60
2023-04-24T00:31:02.873Z,3.40
2023-04-24T00:33:31.043Z,3.40
2023-04-24T00:36:01.716Z,3.20
2023-04-24T00:38:31.472Z,3.40
2023-04-24T00:40:59.591Z,3.30
2023-04-24T00:43:27.777Z,3.30
2023-04-24T00:45:56.453Z,3.40
2023-04-24T00:48:25.817Z,3.50
2023-04-24T00:50:56.349Z,3.30
2023-04-24T00:53:24.727Z,3.20
2023-04-24T00:55:54.575Z,3.20
2023-04-24T00:58:23.123Z,3.10
2023-04-24T01:00:51.706Z,3.30
2023-04-24T01:03:20.120Z,3.40
2023-04-24T01:05:48.522Z,3.20
2023-04-24T01:08:17.012Z,3.20
2023-04-24T01:10:45.909Z,3.20
2023-04-24T01:13:15.555Z,3.20
2023-04-24T01:15:43.752Z,3.00
2023-04-24T01:18:11.953Z,3.10
2023-04-24T01:20:41.651Z,3.20
2023-04-24T01:23:11.649Z,3.00
2023-04-24T01:25:40.301Z,3.00
2023-04-24T01:28:08.721Z,2.80
2023-04-24T01:30:37.233Z,3.00
2023-04-24T01:33:08.214Z,3.10
2023-04-24T01:35:37.273Z,2.90
2023-04-24T01:38:05.487Z,2.90
2023-04-24T01:40:34.968Z,2.90
2023-04-24T01:43:03.227Z,2.90
2023-04-24T01:45:31.446Z,2.80
2023-04-24T01:47:59.662Z,3.10
2023-04-24T01:50:28.063Z,3.10
2023-04-24T01:52:56.665Z,3.00
2023-04-24T01:55:24.735Z,2.90
2023-04-24T01:57:54.410Z,2.80
2023-04-24T02:00:22.653Z,2.80
2023-04-24T02:02:51.261Z,3.00
2023-04-24T02:05:19.446Z,3.10
2023-04-24T02:07:47.765Z,2.90
2023-04-24T02:10:16.101Z,2.90
2023-04-24T02:12:44.576Z,3.00
2023-04-24T02:15:14.576Z,3.00
2023-04-24T02:17:42.808Z,3.00
2023-04-24T02:20:11.035Z,3.00
2023-04-24T02:22:39.304Z,3.00
2023-04-24T02:25:08.082Z,2.90
2023-04-24T02:27:36.215Z,2.80
2023-04-24T02:30:04.514Z,2.90
2023-04-24T02:32:36.882Z,2.80
2023-04-24T02:35:05.328Z,2.90
2023-04-24T02:37:33.528Z,2.80
2023-04-24T02:40:01.586Z,2.80
2023-04-24T02:42:29.863Z,2.60
2023-04-24T02:44:57.993Z,2.80
2023-04-24T02:47:26.199Z,2.90
2023-04-24T02:49:56.001Z,2.90
2023-04-24T02:52:24.185Z,2.90
2023-04-24T02:54:52.293Z,2.80
2023-04-24T02:57:20.415Z,2.80
2023-04-24T02:59:48.519Z,2.70
2023-04-24T03:02:16.728Z,2.60
2023-04-24T03:04:45.260Z,2.70
2023-04-24T03:07:16.456Z,2.50
2023-04-24T03:09:44.823Z,2.50
2023-04-24T03:12:13.207Z,2.70
2023-04-24T03:14:41.344Z,2.50
2023-04-24T03:17:09.466Z,2.50
2023-04-24T03:19:40.421Z,2.40
2023-04-24T03:22:10.236Z,2.40
2023-04-24T03:24:39.981Z,2.60
2023-04-24T03:27:08.082Z,2.60
2023-04-24T03:29:36.260Z,2.70
2023-04-24T03:32:04.703Z,2.50
2023-04-24T03:34:32.791Z,2.50
2023-04-24T03:37:01.035Z,2.50
2023-04-24T03:39:29.107Z,2.60
2023-04-24T03:41:58.756Z,2.50
2023-04-24T03:44:27.060Z,2.40
2023-04-24T03:46:55.206Z,2.60
2023-04-24T03:49:23.427Z,2.50
2023-04-24T03:51:51.832Z,2.50
2023-04-24T03:54:20.041Z,2.50
2023-04-24T03:56:48.527Z,2.50
2023-04-24T03:59:18.217Z,2.50
2023-04-24T04:01:48.254Z,2.70
2023-04-24T04:04:16.787Z,2.70
2023-04-24T04:06:45.286Z,2.60
2023-04-24T04:09:13.428Z,2.60
2023-04-24T04:11:41.569Z,2.70
2023-04-24T04:14:09.835Z,2.70
2023-04-24T04:16:39.885Z,2.70
2023-04-24T04:19:08.712Z,2.50
2023-04-24T04:21:36.851Z,2.60
2023-04-24T04:24:06.606Z,2.70
2023-04-24T04:26:34.866Z,2.60
2023-04-24T04:29:03.266Z,2.50
2023-04-24T04:31:31.680Z,2.50
2023-04-24T04:34:02.708Z,2.50
2023-04-24T04:36:32.378Z,2.50
2023-04-24T04:39:01.332Z,2.60
2023-04-24T04:41:29.612Z,2.70
2023-04-24T04:43:59.713Z,2.50
2023-04-24T04:46:28.366Z,2.60
2023-04-24T04:48:57.774Z,2.50
2023-04-24T04:51:27.394Z,2.30
2023-04-24T04:53:55.858Z,2.40
2023-04-24T04:56:24.267Z,2.40
2023-04-24T04:58:52.467Z,2.60
2023-04-24T05:01:20.859Z,2.60
2023-04-24T05:03:52.275Z,2.70
2023-04-24T05:06:21.297Z,2.40
2023-04-24T05:08:52.290Z,2.40
2023-04-24T05:11:20.339Z,2.40
2023-04-24T05:13:48.647Z,2.40
2023-04-24T05:16:16.801Z,2.30
2023-04-24T05:18:45.040Z,2.40
2023-04-24T05:21:13.356Z,2.60
2023-04-24T05:23:41.574Z,2.40
2023-04-24T05:26:11.134Z,2.40
2023-04-24T05:28:39.270Z,2.30
2023-04-24T05:31:07.654Z,2.20
2023-04-24T05:33:38.650Z,2.30
2023-04-24T05:36:08.248Z,2.40
2023-04-24T05:38:36.390Z,2.50
2023-04-24T05:41:04.624Z,2.40
2023-04-24T05:43:34.240Z,2.20
2023-04-24T05:46:02.506Z,2.20
2023-04-24T05:48:30.716Z,2.10
2023-04-24T05:50:59.089Z,2.00
2023-04-24T05:53:27.226Z,2.00
2023-04-24T05:55:59.360Z,2.00
2023-04-24T05:58:27.955Z,2.20
2023-04-24T06:00:58.751Z,2.30
2023-04-24T06:03:27.013Z,2.20
2023-04-24T06:05:55.312Z,2.30
2023-04-24T06:08:23.559Z,2.40
2023-04-24T06:10:51.847Z,2.60
2023-04-24T06:13:20.111Z,2.50
2023-04-24T06:15:48.195Z,2.30
2023-04-24T06:18:17.741Z,2.20
2023-04-24T06:20:46.133Z,2.20
2023-04-24T06:23:14.236Z,2.40
2023-04-24T06:25:42.530Z,2.40
2023-04-24T06:28:10.734Z,2.60
2023-04-24T06:30:38.860Z,2.50
2023-04-24T06:33:19.461Z,2.60
2023-04-24T06:35:50.228Z,2.60
2023-04-24T06:38:20.956Z,2.50
2023-04-24T06:40:49.163Z,2.50
2023-04-24T06:43:17.337Z,2.60
2023-04-24T06:45:46.431Z,2.70
2023-04-24T06:48:14.736Z,2.70
2023-04-24T06:50:42.861Z,2.70
2023-04-24T06:53:13.841Z,2.50
2023-04-24T06:55:42.352Z,2.30
2023-04-24T06:58:10.614Z,2.60
2023-04-24T07:00:38.768Z,2.80
2023-04-24T07:03:07.409Z,2.60
2023-04-24T07:05:36.481Z,2.60
2023-04-24T07:08:05.680Z,2.60
2023-04-24T07:10:36.856Z,2.60
2023-04-24T07:13:05.067Z,2.50
2023-04-24T07:15:33.514Z,2.70
2023-04-24T07:18:03.992Z,2.60
2023-04-24T07:20:34.448Z,2.60
2023-04-24T07:23:02.816Z,2.60
2023-04-24T07:25:31.546Z,2.60
2023-04-24T07:28:01.128Z,2.90
2023-04-24T07:30:30.304Z,2.70
2023-04-24T07:32:58.714Z,2.80
2023-04-24T07:35:27.227Z,2.70
2023-04-24T07:37:55.391Z,2.60
2023-04-24T07:40:24.054Z,2.80
2023-04-24T07:42:52.293Z,2.80
2023-04-24T07:45:24.598Z,2.60
2023-04-24T07:47:53.098Z,2.90
2023-04-24T07:50:21.464Z,3.20
2023-04-24T07:52:49.884Z,2.90
2023-04-24T07:55:18.508Z,2.90
2023-04-24T07:57:47.589Z,2.90
2023-04-24T08:00:16.297Z,3.20
2023-04-24T08:02:46.254Z,3.30
2023-04-24T08:05:15.450Z,3.30
2023-04-24T08:07:44.509Z,3.10
2023-04-24T08:10:13.119Z,3.10
2023-04-24T08:12:41.378Z,2.80
2023-04-24T08:15:10.097Z,2.90
2023-04-24T08:17:38.174Z,3.10
2023-04-24T08:20:14.364Z,2.90
2023-04-24T08:22:42.753Z,3.00
2023-04-24T08:25:11.682Z,3.20
2023-04-24T08:27:40.136Z,3.40
2023-04-24T08:30:09.067Z,3.50
2023-04-24T08:32:37.447Z,3.40
2023-04-24T08:35:07.558Z,3.30
2023-04-24T08:37:37.423Z,3.20
2023-04-24T08:40:08.154Z,3.30
2023-04-24T08:42:36.810Z,3.30
2023-04-24T08:45:05.299Z,2.80
2023-04-24T08:47:33.713Z,3.00
2023-04-24T08:50:03.934Z,2.70
2023-04-24T08:52:32.215Z,2.90
2023-04-24T08:55:02.160Z,2.70
2023-04-24T08:57:30.808Z,2.70
2023-04-24T09:00:02.926Z,2.80
2023-04-24T09:02:32.170Z,3.00
2023-04-24T09:05:00.779Z,3.40
2023-04-24T09:07:29.939Z,3.10
2023-04-24T09:10:01.331Z,2.60
2023-04-24T09:12:30.952Z,2.70
2023-04-24T09:14:59.420Z,3.00
2023-04-24T09:17:32.361Z,2.90
2023-04-24T09:20:00.656Z,2.70
2023-04-24T09:22:31.591Z,2.80
2023-04-24T09:25:04.716Z,2.70
2023-04-24T09:27:34.917Z,2.70
2023-04-24T09:30:03.447Z,2.90
2023-04-24T09:32:32.942Z,2.90
2023-04-24T09:35:07.785Z,2.90
2023-04-24T09:37:37.694Z,2.80
2023-04-24T09:40:13.592Z,2.70
2023-04-24T09:42:45.372Z,2.90
2023-04-24T09:45:15.461Z,3.00
2023-04-24T09:47:44.910Z,3.40
2023-04-24T09:50:14.738Z,3.60
2023-04-24T09:52:44.929Z,3.40
2023-04-24T09:55:14.103Z,3.10
2023-04-24T09:57:51.553Z,3.20
2023-04-24T10:00:26.423Z,2.80
2023-04-24T10:03:01.378Z,3.20
2023-04-24T10:05:30.366Z,3.30
2023-04-24T10:07:59.398Z,3.10
2023-04-24T10:10:27.975Z,3.00
2023-04-24T10:12:57.616Z,3.20
2023-04-24T10:15:26.449Z,3.20
2023-04-24T10:17:55.072Z,3.20
2023-04-24T10:20:23.948Z,3.20
2023-04-24T10:22:52.847Z,3.30
2023-04-24T10:25:22.255Z,3.40
2023-04-24T10:27:52.202Z,3.60
2023-04-24T10:30:22.509Z,3.40
2023-04-24T10:32:50.948Z,3.00
2023-04-24T10:35:20.641Z,2.90
2023-04-24T10:37:50.902Z,2.90
2023-04-24T10:40:20.421Z,3.10
2023-04-24T10:42:55.774Z,3.10
2023-04-24T10:45:29.363Z,2.90
2023-04-24T10:48:04.322Z,2.80
2023-04-24T10:50:44.585Z,2.90
2023-04-24T10:53:15.212Z,3.50
2023-04-24T10:55:44.668Z,3.20
2023-04-24T10:58:12.895Z,3.20
2023-04-24T11:00:43.483Z,3.00
2023-04-24T11:03:26.963Z,3.10
2023-04-24T11:05:57.300Z,3.10
2023-04-24T11:08:27.536Z,3.10
2023-04-24T11:11:00.001Z,3.20
2023-04-24T11:13:28.698Z,3.50
2023-04-24T11:16:17.306Z,3.70
2023-04-24T11:18:52.002Z,3.90
2023-04-24T11:21:20.273Z,4.10
2023-04-24T11:23:48.577Z,3.80
2023-04-24T11:26:21.034Z,3.60
2023-04-24T11:28:49.618Z,3.50
2023-04-24T11:31:36.356Z,3.70
2023-04-24T11:34:10.352Z,3.50
2023-04-24T11:36:38.765Z,3.60
2023-04-24T11:39:06.951Z,3.80
2023-04-24T11:41:35.545Z,3.90
2023-04-24T11:44:05.064Z,4.10
2023-04-24T11:46:33.484Z,3.90
2023-04-24T11:49:02.177Z,3.60
2023-04-24T11:51:43.904Z,3.50
2023-04-24T11:54:16.620Z,3.40
2023-04-24T11:56:47.375Z,3.40
2023-04-24T11:59:15.764Z,3.30
2023-04-24T12:01:50.064Z,3.60
2023-04-24T12:04:19.293Z,3.50
2023-04-24T12:07:04.802Z,3.40
2023-04-24T12:09:43.007Z,3.70
2023-04-24T12:12:13.124Z,3.80
2023-04-24T12:14:45.441Z,3.50
2023-04-24T12:17:13.628Z,3.40
2023-04-24T12:19:47.059Z,3.30
2023-04-24T12:22:16.723Z,3.10
2023-04-24T12:25:03.678Z,3.10
2023-04-24T12:27:32.983Z,3.20
2023-04-24T12:30:01.490Z,3.20
2023-04-24T12:32:30.090Z,3.20
2023-04-24T12:34:58.951Z,3.20
2023-04-24T12:37:29.238Z,3.20
2023-04-24T12:40:01.266Z,3.40
2023-04-24T12:42:29.876Z,3.10
2023-04-24T12:45:02.142Z,3.30
2023-04-24T12:47:30.778Z,3.30
2023-04-24T12:49:59.098Z,3.20
2023-04-24T12:52:29.333Z,3.20
2023-04-24T12:54:58.571Z,3.20
2023-04-24T12:57:27.172Z,3.30
2023-04-24T12:59:56.803Z,3.40
2023-04-24T13:02:29.234Z,3.30
2023-04-24T13:04:57.793Z,3.50
2023-04-24T13:07:26.377Z,3.50
2023-04-24T13:09:56.766Z,3.60
2023-04-24T13:12:26.741Z,3.40
2023-04-24T13:14:55.168Z,3.10
2023-04-24T13:17:24.119Z,3.20
2023-04-24T13:19:53.396Z,3.20
2023-04-24T13:22:21.801Z,3.00
2023-04-24T13:24:50.888Z,2.80
2023-04-24T13:27:20.742Z,2.90
2023-04-24T13:29:49.189Z,3.00
2023-04-24T13:32:17.576Z,3.20
2023-04-24T13:34:45.874Z,3.10
2023-04-24T13:37:14.222Z,2.90
2023-04-24T13:39:43.006Z,2.80
2023-04-24T13:42:11.863Z,2.90
2023-04-24T13:44:41.624Z,3.00
2023-04-24T13:47:09.787Z,2.90
2023-04-24T13:49:38.046Z,3.10
2023-04-24T13:52:06.215Z,3.10
2023-04-24T13:54:34.439Z,3.20
2023-04-24T13:57:04.030Z,3.20
2023-04-24T13:59:32.195Z,3.10
2023-04-24T14:02:01.809Z,3.00
2023-04-24T14:04:30.248Z,3.10
2023-04-24T14:06:58.828Z,3.10
2023-04-24T14:09:26.998Z,3.10
2023-04-24T14:11:55.215Z,3.10
2023-04-24T14:14:23.571Z,3.00
2023-04-24T14:16:51.677Z,3.00
2023-04-24T14:19:21.374Z,3.10
2023-04-24T14:21:49.692Z,3.40
2023-04-24T14:24:20.148Z,3.00
2023-04-24T14:26:48.455Z,2.90
2023-04-24T14:29:17.466Z,3.00
2023-04-24T14:31:45.953Z,3.00
2023-04-24T14:34:16.202Z,3.00
2023-04-24T14:36:46.088Z,2.90
2023-04-24T14:39:14.354Z,2.80
2023-04-24T14:41:42.503Z,3.10
2023-04-24T14:44:10.590Z,3.00
2023-04-24T14:46:38.781Z,3.00
2023-04-24T14:49:10.857Z,3.00
2023-04-24T14:51:39.120Z,2.80
2023-04-24T14:54:08.757Z,2.80
2023-04-24T14:56:37.095Z,2.80
2023-04-24T14:59:05.323Z,2.60
2023-04-24T15:01:33.505Z,2.70
2023-04-24T15:04:01.880Z,2.80
2023-04-24T15:06:32.071Z,2.90
2023-04-24T15:09:00.276Z,2.90
2023-04-24T15:11:29.840Z,3.00
2023-04-24T15:13:58.320Z,2.90
2023-04-24T15:16:26.631Z,3.00
2023-04-24T15:18:54.799Z,3.20
2023-04-24T15:21:23.085Z,2.90
2023-04-24T15:23:51.145Z,2.80
2023-04-24T15:26:21.033Z,2.90
2023-04-24T15:28:50.660Z,2.90
2023-04-24T15:31:18.995Z,2.80
2023-04-24T15:33:47.360Z,2.70
2023-04-24T15:36:15.789Z,2.70
2023-04-24T15:38:44.779Z,2.70
2023-04-24T15:41:12.984Z,2.50
2023-04-24T15:43:42.469Z,2.50
2023-04-24T15:46:12.284Z,2.40
2023-04-24T15:48:42.337Z,2.50
2023-04-24T15:51:13.655Z,2.60
2023-04-24T15:53:41.910Z,2.60
2023-04-24T15:56:10.191Z,2.50
2023-04-24T15:58:38.494Z,2.50
2023-04-24T16:01:06.732Z,2.50
2023-04-24T16:03:36.498Z,2.40
2023-04-24T16:06:05.065Z,2.50
2023-04-24T16:08:33.376Z,2.50
2023-04-24T16:11:01.607Z,2.40
2023-04-24T16:13:32.054Z,2.40
2023-04-24T16:16:00.313Z,2.40
2023-04-24T16:18:28.642Z,2.40
2023-04-24T16:20:58.377Z,2.50
2023-04-24T16:23:26.591Z,2.50
2023-04-24T16:25:54.787Z,2.50
2023-04-24T16:28:23.504Z,2.60
2023-04-24T16:30:51.644Z,2.60
2023-04-24T16:33:19.895Z,2.60
2023-04-24T16:35:47.987Z,2.60
2023-04-24T16:38:19.671Z,2.60
2023-04-24T16:40:48.037Z,2.40
2023-04-24T16:43:16.122Z,2.50
2023-04-24T16:45:44.434Z,2.60
2023-04-24T16:48:12.579Z,2.50
2023-04-24T16:50:40.884Z,2.40
2023-04-24T16:53:08.971Z,2.40
2023-04-24T16:55:38.596Z,2.30
2023-04-24T16:58:06.782Z,2.40
2023-04-24T17:00:38.653Z,2.50
2023-04-24T17:03:07.025Z,2.40
2023-04-24T17:05:36.024Z,2.30
2023-04-24T17:08:07.380Z,2.30
2023-04-24T17:10:35.605Z,2.20
2023-04-24T17:13:05.185Z,2.20
2023-04-24T17:15:33.928Z,2.30
2023-04-24T17:18:02.417Z,2.30
2023-04-24T17:20:30.619Z,2.30
2023-04-24T17:22:58.807Z,2.30
2023-04-24T17:25:27.051Z,2.40
2023-04-24T17:27:55.279Z,2.30
2023-04-24T17:30:24.971Z,2.20
2023-04-24T17:32:53.175Z,2.30
2023-04-24T17:35:22.789Z,2.30
2023-04-24T17:37:51.041Z,2.30
2023-04-24T17:40:19.318Z,2.40
2023-04-24T17:42:47.461Z,2.30
2023-04-24T17:45:15.803Z,2.40
2023-04-24T17:47:47.037Z,2.30
2023-04-24T17:50:15.933Z,2.30
2023-04-24T17:52:44.315Z,2.20
2023-04-24T17:55:12.428Z,2.20
2023-04-24T17:57:40.823Z,2.10
2023-04-24T18:00:09.802Z,2.10
2023-04-24T18:02:38.435Z,2.20
2023-04-24T18:05:08.408Z,2.20
2023-04-24T18:07:36.719Z,2.10
2023-04-24T18:10:04.961Z,2.20
2023-04-24T18:12:33.229Z,2.20
2023-04-24T18:17:35.748Z,2.20
2023-04-24T18:20:04.082Z,2.20
2023-04-24T18:22:33.732Z,2.20
2023-04-24T18:25:02.077Z,2.10
2023-04-24T18:27:31.254Z,2.10
2023-04-24T18:29:59.728Z,2.10
2023-04-24T18:32:28.072Z,2.10
2023-04-24T18:34:56.265Z,2.00
2023-04-24T18:37:24.512Z,2.10
2023-04-24T18:39:55.877Z,2.00
2023-04-24T18:42:24.063Z,2.10
2023-04-24T18:44:52.508Z,2.00
2023-04-24T18:47:20.666Z,2.00
2023-04-24T18:49:48.940Z,2.00
2023-04-24T18:52:17.174Z,2.00
2023-04-24T18:54:45.370Z,2.00
2023-04-24T18:57:15.192Z,2.00
2023-04-24T18:59:43.339Z,2.00
2023-04-24T19:02:12.010Z,2.00
2023-04-24T19:04:40.491Z,2.00
2023-04-24T19:07:08.796Z,2.00
2023-04-24T19:09:37.014Z,2.00
2023-04-24T19:12:06.754Z,2.00
2023-04-24T19:14:36.306Z,2.00
2023-04-24T19:17:04.609Z,1.90
2023-04-24T19:19:33.215Z,1.90
2023-04-24T19:22:01.334Z,1.90
2023-04-24T19:24:29.994Z,1.90
2023-04-24T19:26:58.279Z,1.90
2023-04-24T19:29:26.605Z,1.90
2023-04-24T19:31:58.049Z,1.90
2023-04-24T19:34:27.000Z,1.90
2023-04-24T19:36:57.557Z,1.90
2023-04-24T19:39:25.704Z,1.90
2023-04-24T19:41:53.851Z,1.90
2023-04-24T19:44:22.054Z,1.90
2023-04-24T19:46:50.157Z,1.90
2023-04-24T19:49:20.044Z,1.90
2023-04-24T19:51:48.170Z,1.90
2023-04-24T19:54:16.603Z,1.90
2023-04-24T19:56:44.796Z,1.90
2023-04-24T19:59:12.944Z,1.90
2023-04-24T20:01:42.800Z,1.80
2023-04-24T20:04:12.067Z,1.80
2023-04-24T20:06:41.789Z,1.90
2023-04-24T20:09:11.063Z,1.80
2023-04-24T20:11:39.259Z,1.80
2023-04-24T20:14:07.483Z,1.80
2023-04-24T20:16:35.672Z,1.80
2023-04-24T20:19:04.024Z,1.80
2023-04-24T20:21:32.181Z,1.70
2023-04-24T20:24:01.791Z,1.70
2023-04-24T20:26:30.153Z,1.70
2023-04-24T20:28:58.315Z,1.70
2023-04-24T20:31:26.593Z,1.70
2023-04-24T20:33:57.291Z,1.60
2023-04-24T20:36:25.716Z,1.60
2023-04-24T20:38:53.966Z,1.60
2023-04-24T20:41:24.882Z,1.60
2023-04-24T20:43:53.228Z,1.60
2023-04-24T20:46:21.753Z,1.60
2023-04-24T20:48:50.631Z,1.60
2023-04-24T20:51:19.816Z,1.70
2023-04-24T20:53:50.028Z,1.70
2023-04-24T20:56:18.549Z,1.70
2023-04-24T20:58:48.710Z,1.70
2023-04-24T21:01:17.410Z,1.70
2023-04-24T21:03:45.863Z,1.70
2023-04-24T21:06:14.389Z,1.60
2023-04-24T21:08:42.531Z,1.70
2023-04-24T21:11:12.842Z,1.70
2023-04-24T21:13:41.065Z,1.70
2023-04-24T21:16:13.946Z,1.70
2023-04-24T21:18:42.256Z,1.70
2023-04-24T21:21:10.561Z,1.70
2023-04-24T21:23:39.181Z,1.60
2023-04-24T21:26:07.820Z,1.70
2023-04-24T21:28:36.243Z,1.70
2023-04-24T21:31:04.410Z,1.70
2023-04-24T21:33:34.352Z,1.70
2023-04-24T21:36:02.587Z,1.70
2023-04-24T21:38:30.764Z,1.60
2023-04-24T21:40:58.885Z,1.60
2023-04-24T21:43:37.231Z,1.60
2023-04-24T21:46:15.419Z,1.70
2023-04-24T21:48:45.107Z,1.70
2023-04-24T21:51:13.256Z,1.70
2023-04-24T21:53:41.528Z,1.60
2023-04-24T21:56:13.304Z,1.60
2023-04-24T21:58:41.888Z,1.60
2023-04-24T22:01:12.163Z,1.50
2023-04-24T22:03:40.403Z,1.50
2023-04-24T22:06:10.119Z,1.50
2023-04-24T22:08:38.403Z,1.50
2023-04-24T22:11:13.489Z,1.50
2023-04-24T22:13:48.665Z,1.50
2023-04-24T22:16:17.138Z,1.50
2023-04-24T22:18:47.406Z,1.50
2023-04-24T22:21:17.386Z,1.50
2023-04-24T22:23:45.828Z,1.60
2023-04-24T22:26:14.138Z,1.50
2023-04-24T22:28:42.221Z,1.50
2023-04-24T22:31:10.675Z,1.50
2023-04-24T22:33:38.943Z,1.40
2023-04-24T22:36:07.304Z,1.50
2023-04-24T22:38:39.154Z,1.40
2023-04-24T22:41:07.546Z,1.40
2023-04-24T22:43:35.721Z,1.40
2023-04-24T22:46:04.418Z,1.40
2023-04-24T22:48:33.077Z,1.40
2023-04-24T22:51:01.413Z,1.40
2023-04-24T22:53:29.543Z,1.40
2023-04-24T22:55:59.140Z,1.40
2023-04-24T22:58:27.479Z,1.30
2023-04-24T23:00:55.938Z,1.30
2023-04-24T23:03:24.382Z,1.30
2023-04-24T23:05:52.652Z,1.30
2023-04-24T23:08:20.952Z,1.30
2023-04-24T23:10:49.086Z,1.30
2023-04-24T23:13:18.637Z,1.30
2023-04-24T23:15:46.925Z,1.20
2023-04-24T23:18:15.025Z,1.20
2023-04-24T23:20:43.179Z,1.20
2023-04-24T23:23:11.717Z,1.20
2023-04-24T23:25:39.849Z,1.20
2023-04-24T23:28:08.159Z,1.30
2023-04-24T23:30:37.780Z,1.30
2023-04-24T23:33:06.185Z,1.30
2023-04-24T23:35:34.420Z,1.20
2023-04-24T23:38:02.514Z,1.20
2023-04-24T23:40:32.944Z,1.20
2023-04-24T23:43:07.943Z,1.20
2023-04-24T23:45:38.549Z,1.20
2023-04-24T23:48:06.857Z,1.20
2023-04-24T23:50:37.797Z,1.30
2023-04-24T23:53:05.928Z,1.20
2023-04-24T23:55:34.272Z,1.30
2023-04-24T23:58:02.414Z,1.30
